createdAt,value
2024-03-01T00:01:10.533Z,100262.31
2024-03-01T00:03:38.252Z,100255.44
2024-03-01T00:06:05.777Z,100256.22
2024-03-01T00:08:33.253Z,100247.47
2024-03-01T00:11:00.720Z,100249.34
2024-03-01T00:13:28.275Z,100241.72
2024-03-01T00:15:56.501Z,100244.38
2024-03-01T00:18:23.996Z,100239.81
2024-03-01T00:20:53.999Z,100244.38
2024-03-01T00:23:21.393Z,100248.94
2024-03-01T00:25:48.764Z,100234.06
2024-03-01T00:28:16.273Z,100235.97
2024-03-01T00:30:43.850Z,100227.25
2024-03-01T00:33:11.463Z,100227.25
2024-03-01T00:35:38.820Z,100219.25
2024-03-01T00:38:06.248Z,100220.00
2024-03-01T00:40:34.225Z,100218.81
2024-03-01T00:43:01.644Z,100218.81
2024-03-01T00:45:29.747Z,100218.81
2024-03-01T00:47:57.257Z,100228.69
2024-03-01T00:50:25.228Z,100219.94
2024-03-01T00:52:53.366Z,100231.34
2024-03-01T00:55:20.750Z,100221.47
2024-03-01T00:57:48.197Z,100218.03
2024-03-01T01:00:16.009Z,100213.47
2024-03-01T01:02:43.652Z,100205.94
2024-03-01T01:05:12.039Z,100214.66
2024-03-01T01:07:39.809Z,100204.78
2024-03-01T01:10:08.007Z,100203.31
2024-03-01T01:12:35.717Z,100197.66
2024-03-01T01:15:03.280Z,100198.03
2024-03-01T01:17:37.012Z,100197.28
2024-03-01T01:20:04.942Z,100193.50
2024-03-01T01:22:32.725Z,100196.16
2024-03-01T01:25:00.280Z,100194.25
2024-03-01T01:27:27.781Z,100192.38
2024-03-01T01:29:55.188Z,100184.38
2024-03-01T01:32:22.880Z,100187.81
2024-03-01T01:34:50.937Z,100179.44
2024-03-01T01:37:18.401Z,100179.06
2024-03-01T01:39:45.939Z,100179.06
2024-03-01T01:42:13.718Z,100164.97
2024-03-01T01:44:41.141Z,100166.88
2024-03-01T01:47:09.250Z,100144.03
2024-03-01T01:49:36.833Z,100149.34
2024-03-01T01:52:04.848Z,100139.88
2024-03-01T01:54:32.320Z,100130.34
2024-03-01T01:56:59.976Z,100124.25
2024-03-01T01:59:27.767Z,100128.81
2024-03-01T02:01:55.668Z,100132.22
2024-03-01T02:04:23.386Z,100120.81
2024-03-01T02:06:50.958Z,100134.13
2024-03-01T02:09:21.089Z,100129.91
2024-03-01T02:11:48.931Z,100130.69
2024-03-01T02:14:16.456Z,100128.38
2024-03-01T02:16:43.872Z,100113.53
2024-03-01T02:19:16.461Z,100116.97
2024-03-01T02:22:04.494Z,100102.16
2024-03-01T02:24:32.134Z,100103.28
2024-03-01T02:27:02.506Z,100111.25
2024-03-01T02:29:30.283Z,100101.69
2024-03-01T02:31:58.107Z,100091.06
2024-03-01T02:34:26.174Z,100088.38
2024-03-01T02:36:54.104Z,100099.03
2024-03-01T02:39:21.558Z,100090.63
2024-03-01T02:41:49.286Z,100080.75
2024-03-01T02:44:16.776Z,100076.59
2024-03-01T02:46:44.688Z,100089.91
2024-03-01T02:49:12.169Z,100078.47
2024-03-01T02:51:40.896Z,100089.91
2024-03-01T02:54:08.554Z,100089.91
2024-03-01T02:56:35.944Z,100085.31
2024-03-01T02:59:03.582Z,100073.53
2024-03-01T03:01:32.757Z,100071.31
2024-03-01T03:04:00.571Z,100069.44
2024-03-01T03:06:27.979Z,100077.81
2024-03-01T03:08:55.878Z,100080.88
2024-03-01T03:11:23.606Z,100077.47
2024-03-01T03:13:51.523Z,100074.44
2024-03-01T03:16:18.926Z,100070.66
2024-03-01T03:18:46.320Z,100059.25
2024-03-01T03:21:14.602Z,100063.78
2024-03-01T03:23:42.054Z,100065.34
2024-03-01T03:26:09.351Z,100071.41
2024-03-01T03:28:36.783Z,100068.38
2024-03-01T03:31:04.603Z,100064.19
2024-03-01T03:33:32.186Z,100062.69
2024-03-01T03:35:59.799Z,100073.31
2024-03-01T03:38:27.941Z,100070.66
2024-03-01T03:40:55.575Z,100076.72
2024-03-01T03:43:23.077Z,100073.69
2024-03-01T03:45:50.576Z,100080.13
2024-03-01T03:48:18.042Z,100074.78
2024-03-01T03:50:45.663Z,100074.78
2024-03-01T03:53:13.369Z,100067.16
2024-03-01T03:55:40.745Z,100064.50
2024-03-01T03:58:08.138Z,100068.28
2024-03-01T04:00:35.991Z,100067.53
2024-03-01T04:03:03.460Z,100062.22
2024-03-01T04:05:30.911Z,100071.31
2024-03-01T04:07:58.323Z,100074.75
2024-03-01T04:10:26.103Z,100077.75
2024-03-01T04:12:53.587Z,100077.75
2024-03-01T04:15:21.023Z,100080.41
2024-03-01T04:17:48.516Z,100073.53
2024-03-01T04:20:18.080Z,100076.97
2024-03-01T04:22:45.692Z,100073.94
2024-03-01T04:25:13.056Z,100076.59
2024-03-01T04:27:40.485Z,100067.06
2024-03-01T04:30:10.772Z,100065.53
2024-03-01T04:32:38.625Z,100075.41
2024-03-01T04:35:07.223Z,100061.31
2024-03-01T04:37:38.279Z,100066.66
2024-03-01T04:40:06.925Z,100066.22
2024-03-01T04:42:35.625Z,100065.50
2024-03-01T04:45:03.129Z,100071.94
2024-03-01T04:47:30.803Z,100068.88
2024-03-01T04:49:58.295Z,100069.66
2024-03-01T04:52:27.651Z,100073.09
2024-03-01T04:54:55.223Z,100065.09
2024-03-01T04:57:22.609Z,100063.22
2024-03-01T04:59:50.316Z,100064.75
2024-03-01T05:02:17.988Z,100065.94
2024-03-01T05:04:45.559Z,100074.31
2024-03-01T05:07:13.052Z,100063.66
2024-03-01T05:09:40.466Z,100058.78
2024-03-01T05:12:14.690Z,100062.97
2024-03-01T05:14:42.431Z,100069.06
2024-03-01T05:17:10.199Z,100069.06
2024-03-01T05:19:40.247Z,100062.97
2024-03-01T05:22:09.526Z,100064.50
2024-03-01T05:24:36.941Z,100062.59
2024-03-01T05:27:04.321Z,100062.59
2024-03-01T05:29:31.665Z,100059.94
2024-03-01T05:31:59.392Z,100054.63
2024-03-01T05:34:26.872Z,100057.66
2024-03-01T05:36:54.301Z,100059.56
2024-03-01T05:39:21.656Z,100058.41
2024-03-01T05:41:49.603Z,100056.13
2024-03-01T05:44:17.686Z,100061.44
2024-03-01T05:46:45.068Z,100062.56
2024-03-01T05:49:12.532Z,100065.56
2024-03-01T05:51:40.638Z,100067.88
2024-03-01T05:54:07.997Z,100073.53
2024-03-01T05:56:35.398Z,100067.44
2024-03-01T05:59:03.435Z,100071.25
2024-03-01T06:01:31.737Z,100071.25
2024-03-01T06:03:59.348Z,100068.94
2024-03-01T06:06:26.861Z,100074.28
2024-03-01T06:08:54.162Z,100076.94
2024-03-01T06:11:22.015Z,100066.66
2024-03-01T06:13:49.354Z,100075.41
2024-03-01T06:16:16.890Z,100071.19
2024-03-01T06:18:44.337Z,100064.34
2024-03-01T06:21:19.947Z,100064.34
2024-03-01T06:23:47.560Z,100074.22
2024-03-01T06:26:15.455Z,100065.50
2024-03-01T06:28:45.788Z,100067.72
2024-03-01T06:31:13.568Z,100063.53
2024-03-01T06:33:42.319Z,100064.31
2024-03-01T06:36:09.754Z,100069.25
2024-03-01T06:38:37.595Z,100064.66
2024-03-01T06:41:06.412Z,100069.25
2024-03-01T06:43:34.203Z,100069.25
2024-03-01T06:46:04.267Z,100063.91
2024-03-01T06:48:31.795Z,100069.25
2024-03-01T06:50:59.508Z,100064.31
2024-03-01T06:53:30.862Z,100073.41
2024-03-01T06:55:58.629Z,100066.97
2024-03-01T06:58:26.079Z,100071.56
2024-03-01T07:00:53.946Z,100067.00
2024-03-01T07:03:21.585Z,100064.00
2024-03-01T07:05:48.949Z,100062.09
2024-03-01T07:08:16.609Z,100054.88
2024-03-01T07:10:44.326Z,100051.88
2024-03-01T07:13:11.833Z,100050.72
2024-03-01T07:15:39.235Z,100051.88
2024-03-01T07:18:06.684Z,100053.38
2024-03-01T07:20:34.622Z,100034.75
2024-03-01T07:23:01.992Z,100039.34
2024-03-01T07:25:29.417Z,100036.66
2024-03-01T07:27:56.846Z,100037.03
2024-03-01T07:30:24.610Z,100037.78
2024-03-01T07:32:54.448Z,100046.53
2024-03-01T07:35:22.179Z,100045.78
2024-03-01T07:37:49.606Z,100045.78
2024-03-01T07:40:17.453Z,100053.00
2024-03-01T07:42:44.874Z,100060.19
2024-03-01T07:45:12.973Z,100050.69
2024-03-01T07:47:46.540Z,100062.09
2024-03-01T07:50:15.336Z,100063.56
2024-03-01T07:52:42.785Z,100071.56
2024-03-01T07:55:13.024Z,100078.78
2024-03-01T07:57:40.636Z,100076.88
2024-03-01T08:00:08.537Z,100066.63
2024-03-01T08:02:36.200Z,100062.41
2024-03-01T08:05:03.698Z,100066.97
2024-03-01T08:07:31.109Z,100076.84
2024-03-01T08:09:58.451Z,100076.06
2024-03-01T08:12:26.145Z,100069.25
2024-03-01T08:14:53.512Z,100062.00
2024-03-01T08:17:58.121Z,100063.91
2024-03-01T08:21:24.339Z,100069.56
2024-03-01T08:24:47.608Z,100061.94
2024-03-01T08:28:13.624Z,100056.97
2024-03-01T08:31:39.519Z,100063.06
2024-03-01T08:35:02.615Z,100074.06
2024-03-01T08:38:26.142Z,100069.88
2024-03-01T08:41:49.828Z,100060.34
2024-03-01T08:45:13.476Z,100062.25
2024-03-01T08:48:42.258Z,100056.56
2024-03-01T08:52:05.690Z,100058.09
2024-03-01T08:55:28.577Z,100053.19
2024-03-01T08:58:52.509Z,100063.91
2024-03-01T09:02:15.924Z,100058.63
2024-03-01T09:05:44.489Z,100068.16
2024-03-01T09:09:07.983Z,100074.97
2024-03-01T09:12:31.443Z,100069.66
2024-03-01T09:15:54.413Z,100079.19
2024-03-01T09:19:18.054Z,100075.38
2024-03-01T09:22:41.756Z,100071.97
2024-03-01T09:26:11.210Z,100078.41
2024-03-01T09:29:34.770Z,100079.94
2024-03-01T09:32:58.093Z,100074.97
2024-03-01T09:36:21.680Z,100076.88
2024-03-01T09:39:45.174Z,100071.56
2024-03-01T09:43:15.145Z,100067.38
2024-03-01T09:46:38.483Z,100068.50
2024-03-01T09:50:01.867Z,100063.94
2024-03-01T09:53:25.305Z,100077.59
2024-03-01T09:56:48.929Z,100078.38
2024-03-01T10:00:13.388Z,100072.63
2024-03-01T10:03:36.456Z,100089.38
2024-03-01T10:07:01.609Z,100076.44
2024-03-01T10:10:27.154Z,100074.88
2024-03-01T10:13:54.808Z,100078.31
2024-03-01T10:16:53.158Z,100077.88
2024-03-01T10:19:32.370Z,100082.44
2024-03-01T10:22:16.329Z,100080.91
2024-03-01T10:24:51.761Z,100082.81
2024-03-01T10:27:30.767Z,100084.72
2024-03-01T10:30:01.325Z,100087.38
2024-03-01T10:32:47.504Z,100086.59
2024-03-01T10:35:18.079Z,100068.34
2024-03-01T10:37:48.681Z,100066.78
2024-03-01T10:40:19.608Z,100071.00
2024-03-01T10:43:10.366Z,100080.88
2024-03-01T10:45:48.712Z,100084.28
2024-03-01T10:48:16.258Z,100090.38
2024-03-01T10:50:50.492Z,100091.16
2024-03-01T10:53:21.758Z,100092.69
2024-03-01T10:55:56.588Z,100093.09
2024-03-01T10:58:28.008Z,100091.97
2024-03-01T11:00:58.152Z,100095.06
2024-03-01T11:03:27.865Z,100095.47
2024-03-01T11:06:11.604Z,100097.00
2024-03-01T11:08:46.954Z,100101.22
2024-03-01T11:11:35.497Z,100100.81
2024-03-01T11:14:05.154Z,100110.72
2024-03-01T11:16:35.260Z,100104.25
2024-03-01T11:19:06.374Z,100106.16
2024-03-01T11:21:34.295Z,100098.94
2024-03-01T11:24:09.790Z,100104.25
2024-03-01T11:26:44.300Z,100104.25
2024-03-01T11:29:32.838Z,100106.91
2024-03-01T11:32:15.154Z,100102.75
2024-03-01T11:34:59.267Z,100116.78
2024-03-01T11:37:26.730Z,100112.63
2024-03-01T11:40:24.309Z,100120.22
2024-03-01T11:43:15.579Z,100117.94
2024-03-01T11:46:01.852Z,100117.94
2024-03-01T11:48:41.051Z,100114.50
2024-03-01T11:51:26.980Z,100107.66
2024-03-01T11:53:54.303Z,100108.41
2024-03-01T11:56:34.235Z,100105.00
2024-03-01T11:59:11.218Z,100103.44
2024-03-01T12:01:47.763Z,100103.44
2024-03-01T12:04:25.613Z,100115.22
2024-03-01T12:07:12.695Z,100106.50
2024-03-01T12:09:40.227Z,100111.81
2024-03-01T12:12:21.347Z,100116.38
2024-03-01T12:14:59.639Z,100129.22
2024-03-01T12:17:41.863Z,100129.97
2024-03-01T12:20:10.373Z,100125.00
2024-03-01T12:22:53.305Z,100135.66
2024-03-01T12:25:24.193Z,100137.53
2024-03-01T12:27:51.665Z,100145.53
2024-03-01T12:30:19.164Z,100142.09
2024-03-01T12:32:55.315Z,100140.59
2024-03-01T12:35:44.220Z,100137.16
2024-03-01T12:38:11.632Z,100147.03
2024-03-01T12:40:42.643Z,100156.56
2024-03-01T12:43:34.270Z,100152.00
2024-03-01T12:46:34.564Z,100152.00
2024-03-01T12:49:02.162Z,100152.00
2024-03-01T12:51:30.220Z,100168.00
2024-03-01T12:54:05.973Z,100163.09
2024-03-01T12:56:36.443Z,100157.44
2024-03-01T12:59:10.830Z,100159.75
2024-03-01T13:01:58.591Z,100172.31
2024-03-01T13:04:44.977Z,100167.78
2024-03-01T13:07:15.314Z,100168.13
2024-03-01T13:09:49.458Z,100166.66
2024-03-01T13:12:18.948Z,100170.09
2024-03-01T13:14:49.412Z,100164.75
2024-03-01T13:17:29.555Z,100181.50
2024-03-01T13:20:25.257Z,100173.50
2024-03-01T13:22:57.033Z,100170.84
2024-03-01T13:25:37.909Z,100171.97
2024-03-01T13:28:10.628Z,100168.53
2024-03-01T13:30:38.430Z,100168.53
2024-03-01T13:33:32.349Z,100173.50
2024-03-01T13:36:03.472Z,100172.75
2024-03-01T13:38:41.639Z,100167.44
2024-03-01T13:41:12.818Z,100173.09
2024-03-01T13:43:45.330Z,100180.72
2024-03-01T13:46:19.164Z,100173.09
2024-03-01T13:48:48.608Z,100168.53
2024-03-01T13:51:16.972Z,100169.28
2024-03-01T13:53:48.127Z,100176.88
2024-03-01T13:56:16.089Z,100162.81
2024-03-01T13:58:43.505Z,100164.31
2024-03-01T14:01:14.674Z,100175.34
2024-03-01T14:03:51.011Z,100167.34
2024-03-01T14:06:24.386Z,100163.19
2024-03-01T14:09:12.830Z,100163.19
2024-03-01T14:11:40.467Z,100173.41
2024-03-01T14:14:08.312Z,100180.25
2024-03-01T14:16:36.087Z,100190.91
2024-03-01T14:19:03.607Z,100185.94
2024-03-01T14:21:31.874Z,100185.94
2024-03-01T14:24:01.650Z,100183.28
2024-03-01T14:26:30.128Z,100188.59
2024-03-01T14:28:57.856Z,100189.72
2024-03-01T14:31:25.667Z,100185.53
2024-03-01T14:34:00.116Z,100182.88
2024-03-01T14:36:28.286Z,100187.41
2024-03-01T14:38:58.752Z,100186.31
2024-03-01T14:41:40.800Z,100186.31
2024-03-01T14:44:09.798Z,100187.81
2024-03-01T14:46:45.261Z,100182.50
2024-03-01T14:49:16.186Z,100189.38
2024-03-01T14:51:44.229Z,100195.13
2024-03-01T14:54:32.671Z,100184.84
2024-03-01T14:57:00.059Z,100188.72
2024-03-01T14:59:27.384Z,100195.56
2024-03-01T15:01:55.354Z,100193.31
2024-03-01T15:04:23.046Z,100186.88
2024-03-01T15:06:54.025Z,100181.53
2024-03-01T15:09:23.991Z,100193.75
2024-03-01T15:11:52.282Z,100184.97
2024-03-01T15:14:22.836Z,100176.22
2024-03-01T15:16:50.472Z,100186.88
2024-03-01T15:19:19.614Z,100179.66
2024-03-01T15:21:49.590Z,100175.91
2024-03-01T15:24:20.384Z,100180.44
2024-03-01T15:26:48.468Z,100177.78
2024-03-01T15:29:16.082Z,100177.00
2024-03-01T15:31:44.611Z,100185.78
2024-03-01T15:34:12.234Z,100175.13
2024-03-01T15:36:39.734Z,100184.19
2024-03-01T15:39:11.208Z,100178.88
2024-03-01T15:41:39.150Z,100176.22
2024-03-01T15:44:06.968Z,100178.56
2024-03-01T15:46:34.542Z,100178.09
2024-03-01T15:49:02.272Z,100167.47
2024-03-01T15:51:30.090Z,100170.91
2024-03-01T15:53:57.630Z,100173.56
2024-03-01T15:56:25.281Z,100173.91
2024-03-01T15:58:53.193Z,100167.81
2024-03-01T16:01:21.088Z,100173.91
2024-03-01T16:03:48.779Z,100170.47
2024-03-01T16:06:16.522Z,100181.13
2024-03-01T16:08:44.237Z,100181.50
2024-03-01T16:11:12.396Z,100195.56
2024-03-01T16:13:40.359Z,100189.47
2024-03-01T16:16:09.293Z,100193.25
2024-03-01T16:18:38.693Z,100195.16
2024-03-01T16:21:07.975Z,100202.38
2024-03-01T16:23:36.949Z,100195.13
2024-03-01T16:26:05.047Z,100200.81
2024-03-01T16:28:32.571Z,100198.16
2024-03-01T16:31:02.502Z,100201.22
2024-03-01T16:33:30.862Z,100189.03
2024-03-01T16:36:07.530Z,100193.22
2024-03-01T16:38:38.976Z,100204.59
2024-03-01T16:41:20.220Z,100210.69
2024-03-01T16:43:49.240Z,100207.69
2024-03-01T16:46:24.194Z,100210.34
2024-03-01T16:48:55.729Z,100218.75
2024-03-01T16:51:39.038Z,100211.47
2024-03-01T16:54:07.613Z,100223.66
2024-03-01T16:56:40.247Z,100211.16
2024-03-01T16:59:10.863Z,100211.59
2024-03-01T17:01:41.802Z,100212.38
2024-03-01T17:04:10.921Z,100219.66
2024-03-01T17:06:42.146Z,100224.28
2024-03-01T17:09:15.625Z,100225.78
2024-03-01T17:11:46.865Z,100233.41
2024-03-01T17:14:16.894Z,100233.06
2024-03-01T17:16:45.386Z,100237.66
2024-03-01T17:19:27.933Z,100245.34
2024-03-01T17:22:02.056Z,100249.53
2024-03-01T17:24:30.813Z,100246.50
2024-03-01T17:26:58.192Z,100242.38
2024-03-01T17:29:26.046Z,100239.34
2024-03-01T17:31:53.974Z,100238.19
2024-03-01T17:34:21.514Z,100236.78
2024-03-01T17:36:49.368Z,100243.22
2024-03-01T17:39:17.044Z,100239.16
2024-03-01T17:41:44.653Z,100246.03
2024-03-01T17:44:12.151Z,100246.41
2024-03-01T17:46:39.696Z,100246.06
2024-03-01T17:49:07.465Z,100244.94
2024-03-01T17:51:35.313Z,100241.16
2024-03-01T17:54:05.191Z,100239.66
2024-03-01T17:56:32.771Z,100242.75
2024-03-01T17:59:00.341Z,100239.75
2024-03-01T18:01:28.239Z,100235.94
2024-03-01T18:03:55.670Z,100234.81
2024-03-01T18:06:23.098Z,100231.03
2024-03-01T18:08:51.064Z,100238.28
2024-03-01T18:11:19.248Z,100244.03
2024-03-01T18:13:47.193Z,100246.69
2024-03-01T18:16:15.093Z,100253.56
2024-03-01T18:18:42.703Z,100253.94
2024-03-01T18:21:10.831Z,100247.94
2024-03-01T18:23:38.254Z,100251.34
2024-03-01T18:26:06.188Z,100252.13
2024-03-01T18:28:33.660Z,100266.22
2024-03-01T18:31:02.936Z,100259.00
2024-03-01T18:33:31.149Z,100262.06
2024-03-01T18:35:59.298Z,100273.13
2024-03-01T18:38:28.498Z,100265.53
2024-03-01T18:40:56.260Z,100262.13
2024-03-01T18:43:23.932Z,100260.22
2024-03-01T18:45:51.376Z,100272.78
2024-03-01T18:48:19.207Z,100270.88
2024-03-01T18:50:46.831Z,100271.66
2024-03-01T18:53:14.245Z,100274.69
2024-03-01T18:55:42.384Z,100280.03
2024-03-01T18:58:09.996Z,100276.63
2024-03-01T19:00:43.273Z,100283.16
2024-03-01T19:03:12.211Z,100293.44
2024-03-01T19:05:39.697Z,100287.75
2024-03-01T19:08:09.149Z,100287.03
2024-03-01T19:10:36.924Z,100287.41
2024-03-01T19:13:04.401Z,100291.63
2024-03-01T19:15:32.007Z,100295.06
2024-03-01T19:18:00.850Z,100300.81
2024-03-01T19:20:29.391Z,100293.56
2024-03-01T19:22:57.076Z,100287.91
2024-03-01T19:25:24.440Z,100297.44
2024-03-01T19:27:51.854Z,100292.13
2024-03-01T19:30:21.862Z,100303.16
2024-03-01T19:32:49.478Z,100301.28
2024-03-01T19:35:16.925Z,100301.69
2024-03-01T19:37:44.336Z,100310.44
2024-03-01T19:40:12.180Z,100307.41
2024-03-01T19:42:39.842Z,100314.28
2024-03-01T19:45:11.421Z,100305.16
2024-03-01T19:47:38.894Z,100307.81
2024-03-01T19:50:07.045Z,100312.03
2024-03-01T19:52:34.796Z,100304.41
2024-03-01T19:55:02.438Z,100293.38
2024-03-01T19:57:30.177Z,100305.56
2024-03-01T19:59:57.518Z,100296.81
2024-03-01T20:02:26.628Z,100294.13
2024-03-01T20:04:54.034Z,100295.69
2024-03-01T20:07:21.402Z,100297.97
2024-03-01T20:09:48.828Z,100293.75
2024-03-01T20:12:16.551Z,100293.44
2024-03-01T20:14:43.876Z,100291.53
2024-03-01T20:17:11.736Z,100291.53
2024-03-01T20:19:39.551Z,100293.84
2024-03-01T20:22:08.938Z,100306.03
2024-03-01T20:24:36.316Z,100303.00
2024-03-01T20:27:03.914Z,100297.66
2024-03-01T20:29:31.326Z,100295.00
2024-03-01T20:31:58.994Z,100289.69
2024-03-01T20:34:27.323Z,100295.00
2024-03-01T20:36:54.708Z,100293.09
2024-03-01T20:39:22.082Z,100293.53
2024-03-01T20:41:49.802Z,100296.19
2024-03-01T20:44:17.264Z,100280.19
2024-03-01T20:46:44.662Z,100282.88
2024-03-01T20:49:12.210Z,100284.38
2024-03-01T20:51:39.863Z,100287.81
2024-03-01T20:54:10.116Z,100285.16
2024-03-01T20:56:37.870Z,100287.09
2024-03-01T20:59:07.321Z,100293.91
2024-03-01T21:01:35.125Z,100284.03
2024-03-01T21:04:03.184Z,100289.34
2024-03-01T21:06:33.508Z,100286.84
2024-03-01T21:09:01.902Z,100297.09
2024-03-01T21:11:29.605Z,100295.94
2024-03-01T21:13:57.003Z,100299.84
2024-03-01T21:16:24.531Z,100291.75
2024-03-01T21:18:52.014Z,100299.06
2024-03-01T21:21:19.650Z,100295.38
2024-03-01T21:23:47.003Z,100300.34
2024-03-01T21:26:14.363Z,100295.78
2024-03-01T21:28:41.789Z,100290.81
2024-03-01T21:31:09.479Z,100291.94
2024-03-01T21:33:36.866Z,100294.59
2024-03-01T21:36:04.378Z,100292.31
2024-03-01T21:38:31.801Z,100290.78
2024-03-01T21:40:59.523Z,100294.56
2024-03-01T21:43:26.913Z,100293.00
2024-03-01T21:45:54.439Z,100294.91
2024-03-01T21:48:21.967Z,100286.50
2024-03-01T21:50:49.626Z,100289.19
2024-03-01T21:53:17.659Z,100284.97
2024-03-01T21:55:45.052Z,100280.00
2024-03-01T21:58:12.530Z,100284.94
2024-03-01T22:00:40.181Z,100272.72
2024-03-01T22:03:07.587Z,100279.97
2024-03-01T22:05:35.130Z,100275.75
2024-03-01T22:08:10.453Z,100277.66
2024-03-01T22:10:41.635Z,100272.69
2024-03-01T22:13:09.570Z,100259.72
2024-03-01T22:15:39.120Z,100270.72
2024-03-01T22:18:07.048Z,100267.66
2024-03-01T22:20:34.461Z,100268.03
2024-03-01T22:23:03.228Z,100271.47
2024-03-01T22:25:30.568Z,100266.47
2024-03-01T22:27:58.086Z,100275.63
2024-03-01T22:30:26.187Z,100280.19
2024-03-01T22:32:54.256Z,100279.00
2024-03-01T22:35:21.720Z,100285.09
2024-03-01T22:37:49.521Z,100284.69
2024-03-01T22:40:17.248Z,100286.63
2024-03-01T22:42:45.666Z,100278.97
2024-03-01T22:45:13.759Z,100277.44
2024-03-01T22:47:41.206Z,100283.84
2024-03-01T22:50:09.290Z,100285.38
2024-03-01T22:52:37.143Z,100284.94
2024-03-01T22:55:07.724Z,100284.94
2024-03-01T22:57:39.451Z,100291.78
2024-03-01T23:00:23.832Z,100289.47
2024-03-01T23:02:55.273Z,100288.75
2024-03-01T23:05:41.470Z,100273.91
2024-03-01T23:08:35.606Z,100285.34
2024-03-01T23:11:03.875Z,100281.91
2024-03-01T23:13:40.715Z,100276.91
2024-03-01T23:16:08.939Z,100276.56
2024-03-01T23:18:36.767Z,100279.25
2024-03-01T23:21:04.328Z,100275.41
2024-03-01T23:23:31.670Z,100271.63
2024-03-01T23:25:59.180Z,100267.06
2024-03-01T23:28:27.056Z,100265.53
2024-03-01T23:30:54.779Z,100259.41
2024-03-01T23:33:22.793Z,100263.25
2024-03-01T23:35:50.884Z,100256.00
2024-03-01T23:38:18.352Z,100253.69
2024-03-01T23:40:50.650Z,100252.94
2024-03-01T23:43:21.189Z,100252.94
2024-03-01T23:45:48.607Z,100252.53
2024-03-01T23:48:15.982Z,100252.53
2024-03-01T23:50:43.675Z,100244.91
2024-03-01T23:53:11.097Z,100239.56
2024-03-01T23:55:38.673Z,100251.00
2024-03-01T23:58:06.178Z,100256.69
